Flight Track Log - Related Links

Times and Time Zones

All times are in EDT time to prevent confusion due to time zone crossing. See the N5912M flight status page for this flight to view local times or setup timezone preferences in your user account.

Time Position Orientation Groundspeed Altitude Reporting Facility
EDT Latitude Longitude Course Direction KTS MPH feet Rate Location/Type
Wed 03:11:11 PM 26.8739 -80.1178 354° North 123 142 4,100  Level Miami Center
Wed 03:12:13 PM 26.9111 -80.1106 10° North 150 173 4,000 -48 Descending Miami Center
Wed 03:13:15 PM 26.9514 -80.1178 351° North 144 166 4,000 49 Level Miami Center
Wed 03:14:16 PM 26.9850 -80.1431 326° Northwest 149 171 4,100 49 Climbing Miami Center
Wed 03:15:00 PM 27.0355 -80.2558 354° North  Level FlightAware Approximate
Wed 03:15:18 PM 27.0189 -80.1778 318° Northwest 148 170 4,100  Level Miami Center
Wed 03:16:00 PM 27.0697 -80.2596 354° North  Level FlightAware Approximate
Wed 03:16:20 PM 27.0508 -80.2039 324° Northwest 148 170 4,100  Level Miami Center
Wed 03:17:21 PM 27.0850 -80.2336 322° Northwest 148 170 4,000 -49 Descending Miami Center
Wed 03:18:23 PM 27.1192 -80.2647 321° Northwest 149 171 4,000  Level Miami Center
Wed 03:19:25 PM 27.1581 -80.2825 338° Northwest 148 170 4,000  Level Miami Center
Wed 03:20:26 PM 27.1953 -80.3042 333° Northwest 147 169 4,000  Level Miami Center
Wed 03:21:28 PM 27.2353 -80.3131 349° North 148 170 4,000  Level Miami Center
Wed 03:22:30 PM 27.2775 -80.3200 352° North 148 170 4,000  Level Miami Center
Wed 03:23:32 PM 27.3194 -80.3319 346° North 149 171 4,000 49 Level Miami Center
Wed 03:24:33 PM 27.3608 -80.3433 346° North 149 171 4,100  Climbing Miami Center
Wed 03:25:35 PM 27.3992 -80.3556 344° North 148 170 4,000 -48 Descending Miami Center
Wed 03:26:37 PM 27.4233 -80.3947 305° West 150 173 4,000 -242 Level Miami Center
Wed 03:27:39 PM 27.4472 -80.4397 301° West 156 180 3,500 -585 Descending Miami Center
Wed 03:28:40 PM 27.4683 -80.4819 299° West 151 174 2,800 -634 Descending Miami Center
Wed 03:29:42 PM 27.4625 -80.5314 262° West 153 176 2,200 -435 Descending Miami Center
Wed 03:30:44 PM 27.4567 -80.5736 261° West 144 166 1,900 -97 Descending Miami Center
Wed 03:31:46 PM 27.4811 -80.5817 344° North 105 121 2,000 49 Climbing Miami Center
Wed 03:32:47 PM 27.4972 -80.5567 54° Northeast 114 131 2,000 49 Level Miami Center
Wed 03:33:49 PM 27.4756 -80.5539 174° South 120 138 2,100  Climbing Miami Center
Wed 03:34:51 PM 27.4900 -80.5656 324° Northwest 108 124 2,000  Descending Miami Center
Wed 03:35:53 PM 27.4975 -80.5353 74° East 105 121 2,100 -97 Climbing Miami Center
Wed 03:36:55 PM 27.4981 -80.4994 89° East 106 122 1,800 -290 Descending Miami Center
Wed 03:37:57 PM 27.4969 -80.4644 92° East 110 127 1,500 -439 Descending Miami Center
Wed 03:38:58 PM 27.4978 -80.4347 88° East 96 110 900 -488 Descending Miami Center
Wed 03:40:00 PM 27.4983 -80.4094 89° East 81 93 500 -387 Descending Miami Center
Wed 03:41:02 PM 27.4975 -80.3850 92° East 79 91 100 44 Descending Miami Center
Wed 03:42:16 PM 27.4953 -80.3522 94° East 89 102 600 441 Climbing Miami Center
Wed 03:43:18 PM 27.4894 -80.3242 103° East 89 102 1,100 581 Climbing Miami Center
Wed 03:44:20 PM 27.4839 -80.2919 101° East 106 122 1,800 677 Climbing Miami Center

Login

Don't have an account? Register now (free) for customized features, flight alerts, and more!